Time;durP1;ratioP1;P1;durP2;ratioP2;P2;SDS_P1;SDS_P2;PMS_P1;PMS_P2;Temp;Humidity;BMP_temperature;BMP_pressure;BME280_temperature;BME280_humidity;BME280_pressure;Samples;Min_cycle;Max_cycle;Signal;HPM_P1;HPM_P2
2022/05/16 00:02:06;;;;;;;0.75;0.35;;;26.40;97.10;;;;;;4981847;28;20047;-73
2022/05/16 00:04:35;;;;;;;0.93;0.40;;;26.80;96.40;;;;;;4989782;28;20038;-73
2022/05/16 00:07:03;;;;;;;1.00;0.40;;;27.10;95.80;;;;;;4988652;28;20037;-73
2022/05/16 00:09:30;;;;;;;4.13;0.60;;;26.90;95.50;;;;;;4991618;28;20543;-73
2022/05/16 00:11:57;;;;;;;0.90;0.30;;;27.50;95.90;;;;;;4990177;28;20027;-73
2022/05/16 00:14:25;;;;;;;1.33;0.50;;;27.80;95.70;;;;;;4991697;28;20065;-72
2022/05/16 00:16:52;;;;;;;0.40;0.40;;;28.30;94.30;;;;;;4990091;28;20038;-72
2022/05/16 00:19:19;;;;;;;1.05;0.57;;;28.10;94.20;;;;;;4988744;28;20034;-72
2022/05/16 00:21:47;;;;;;;1.45;0.35;;;28.20;94.10;;;;;;4989078;28;20031;-71
2022/05/16 00:24:15;;;;;;;0.73;0.32;;;28.20;92.50;;;;;;4989325;28;20030;-72
2022/05/16 00:26:42;;;;;;;0.82;0.40;;;28.00;93.10;;;;;;4988749;28;20041;-71
2022/05/16 00:29:09;;;;;;;0.38;0.30;;;28.20;93.30;;;;;;4982527;28;20396;-71
2022/05/16 00:31:37;;;;;;;1.70;0.28;;;28.50;93.10;;;;;;4979861;28;20054;-72
2022/05/16 00:34:04;;;;;;;2.17;0.35;;;29.10;92.80;;;;;;4986315;28;20030;-72
2022/05/16 00:36:31;;;;;;;0.93;0.30;;;29.40;92.40;;;;;;4981866;28;20492;-71
2022/05/16 00:38:58;;;;;;;0.65;0.38;;;29.40;91.60;;;;;;4987675;28;20038;-71
2022/05/16 00:41:26;;;;;;;0.30;0.28;;;29.60;91.50;;;;;;4985524;28;20493;-71
2022/05/16 00:44:00;;;;;;;0.55;0.30;;;29.70;90.90;;;;;;4988228;28;20030;-70
2022/05/16 00:46:30;;;;;;;1.05;0.32;;;29.60;90.60;;;;;;4985104;28;20031;-71
2022/05/16 00:48:59;;;;;;;1.40;0.20;;;29.70;90.10;;;;;;4986859;28;20026;-71
2022/05/16 00:51:34;;;;;;;2.42;0.20;;;29.60;91.50;;;;;;4982093;28;20428;-71
2022/05/16 00:54:21;;;;;;;2.75;0.20;;;29.40;91.50;;;;;;4982164;28;20031;-71
2022/05/16 00:56:51;;;;;;;1.05;0.32;;;29.50;91.10;;;;;;4990176;28;20177;-71
2022/05/16 00:59:20;;;;;;;0.90;0.17;;;29.90;90.90;;;;;;4990617;28;20485;-72
2022/05/16 01:04:48;;;;;;;3.35;0.30;;;30.10;90.20;;;;;;4985017;28;20390;-71
2022/05/16 01:07:32;;;;;;;0.10;0.10;;;30.60;88.40;;;;;;4984804;28;20038;-71
2022/05/16 01:10:00;;;;;;;0.50;0.22;;;30.70;85.50;;;;;;4990504;28;20057;-72
2022/05/16 01:12:40;;;;;;;0.50;0.20;;;30.40;89.00;;;;;;4989413;28;20057;-72
2022/05/16 01:15:12;;;;;;;1.30;0.20;;;30.30;88.70;;;;;;4990029;28;20030;-71
2022/05/16 01:17:40;;;;;;;0.10;0.10;;;30.40;86.80;;;;;;4989178;28;20031;-71
2022/05/16 01:20:10;;;;;;;0.20;0.10;;;30.50;85.50;;;;;;4989088;28;20089;-70
2022/05/16 01:22:57;;;;;;;1.50;0.20;;;30.90;85.70;;;;;;4986762;28;20038;-71
2022/05/16 01:25:29;;;;;;;0.20;0.10;;;31.20;84.10;;;;;;4988806;28;20058;-71
2022/05/16 01:28:04;;;;;;;1.95;0.20;;;31.30;85.90;;;;;;4988677;28;20045;-71
2022/05/16 01:30:54;;;;;;;0.35;0.20;;;31.20;84.40;;;;;;4991478;28;20100;-72
2022/05/16 01:33:25;;;;;;;0.55;0.20;;;31.50;85.30;;;;;;4987263;28;20038;-72
2022/05/16 01:35:53;;;;;;;0.25;0.15;;;31.50;84.30;;;;;;4987691;28;20374;-72
2022/05/16 01:38:22;;;;;;;0.55;0.20;;;31.40;85.30;;;;;;4987803;28;20042;-72
2022/05/16 01:41:00;;;;;;;2.10;0.20;;;31.50;83.80;;;;;;4989215;28;20109;-72
2022/05/16 01:43:30;;;;;;;0.85;0.20;;;31.60;85.60;;;;;;4985873;28;20077;-72
2022/05/16 01:45:58;;;;;;;0.95;0.30;;;32.00;82.10;;;;;;4988582;28;20080;-72
2022/05/16 01:48:29;;;;;;;1.50;0.20;;;31.70;83.90;;;;;;4973500;28;20022;-72
2022/05/16 01:51:00;;;;;;;0.20;0.20;;;31.80;82.60;;;;;;4986801;28;20097;-73
2022/05/16 01:53:28;;;;;;;0.73;0.20;;;31.20;81.60;;;;;;4988845;28;20055;-72
2022/05/16 01:55:56;;;;;;;0.20;0.20;;;31.20;82.60;;;;;;4986105;28;20476;-72
2022/05/16 01:58:24;;;;;;;2.17;0.30;;;31.30;82.60;;;;;;4990977;28;20088;-72
2022/05/16 02:00:52;;;;;;;2.05;0.30;;;31.40;84.10;;;;;;4988245;28;20134;-72
2022/05/16 02:03:20;;;;;;;0.20;0.20;;;31.40;81.70;;;;;;4971575;28;20043;-72
2022/05/16 02:05:48;;;;;;;0.77;0.30;;;30.90;82.80;;;;;;4980043;28;20030;-72
2022/05/16 02:08:16;;;;;;;0.20;0.13;;;30.60;83.60;;;;;;4988944;28;20049;-72
2022/05/16 02:10:45;;;;;;;0.30;0.20;;;30.40;84.10;;;;;;4986789;28;20109;-71
2022/05/16 02:13:13;;;;;;;0.45;0.20;;;30.50;82.50;;;;;;4979420;28;20038;-72
2022/05/16 02:15:42;;;;;;;0.20;0.20;;;30.40;84.30;;;;;;4979498;28;20148;-72
2022/05/16 02:18:10;;;;;;;2.63;0.20;;;29.90;83.70;;;;;;4984192;28;20022;-72
2022/05/16 02:20:38;;;;;;;0.98;0.35;;;29.70;85.90;;;;;;4983217;28;20627;-73
2022/05/16 02:25:55;;;;;;;0.52;0.22;;;29.40;84.00;;;;;;4984159;28;20075;-71
2022/05/16 02:28:23;;;;;;;0.95;0.20;;;29.40;84.60;;;;;;4990712;28;20027;-71
2022/05/16 02:30:52;;;;;;;0.80;0.22;;;29.40;84.30;;;;;;4984082;28;20030;-71
2022/05/16 02:33:20;;;;;;;0.40;0.20;;;29.30;84.80;;;;;;4983204;28;20030;-71
2022/05/16 02:35:48;;;;;;;1.20;0.20;;;28.90;85.40;;;;;;4982655;28;20034;-71
2022/05/16 02:38:17;;;;;;;0.20;0.20;;;28.70;85.60;;;;;;4991823;28;20042;-71
2022/05/16 02:40:45;;;;;;;0.43;0.10;;;29.10;84.70;;;;;;4983915;28;20077;-71
2022/05/16 02:43:12;;;;;;;0.57;0.30;;;29.40;86.30;;;;;;4991695;28;20037;-71
2022/05/16 02:45:39;;;;;;;1.90;0.40;;;29.50;85.70;;;;;;4994292;28;20026;-71
2022/05/16 02:48:07;;;;;;;0.40;0.40;;;29.60;84.80;;;;;;4991895;28;20022;-71
2022/05/16 02:50:34;;;;;;;0.68;0.30;;;29.90;83.50;;;;;;4988135;28;20136;-71
2022/05/16 02:53:02;;;;;;;0.85;0.20;;;29.60;84.40;;;;;;4988660;28;20440;-71
2022/05/16 02:55:31;;;;;;;1.17;0.20;;;29.50;85.20;;;;;;4970517;28;20035;-71
2022/05/16 02:57:59;;;;;;;1.90;0.22;;;29.20;85.20;;;;;;4990559;28;20085;-71
2022/05/16 03:00:26;;;;;;;0.30;0.30;;;29.20;85.50;;;;;;4992876;28;20535;-71
2022/05/16 03:02:54;;;;;;;0.50;0.50;;;29.00;85.50;;;;;;4990182;28;20404;-71
2022/05/16 03:05:21;;;;;;;0.30;0.25;;;28.60;86.80;;;;;;4987801;28;20030;-70
2022/05/16 03:07:48;;;;;;;0.38;0.20;;;28.40;86.50;;;;;;4989825;28;20113;-73
2022/05/16 03:10:17;;;;;;;4.50;0.40;;;28.30;87.50;;;;;;4992051;28;20034;-71
2022/05/16 03:12:49;;;;;;;3.72;0.85;;;28.00;86.50;;;;;;4990754;28;20034;-72
2022/05/16 03:15:17;;;;;;;2.15;0.40;;;28.10;86.70;;;;;;4992485;28;20050;-71
2022/05/16 03:17:44;;;;;;;0.82;0.30;;;28.10;87.60;;;;;;4992056;28;20213;-71
2022/05/16 03:20:15;;;;;;;0.30;0.30;;;28.20;87.10;;;;;;4992760;28;20073;-73
2022/05/16 03:22:42;;;;;;;0.73;0.30;;;28.20;87.70;;;;;;4982293;28;20038;-71
2022/05/16 03:25:10;;;;;;;0.38;0.30;;;28.00;88.00;;;;;;4974220;28;20023;-71
2022/05/16 03:27:38;;;;;;;0.30;0.20;;;27.80;87.90;;;;;;4969449;28;20022;-70
2022/05/16 03:30:09;;;;;;;0.20;0.20;;;27.60;89.30;;;;;;4987017;28;20044;-72
2022/05/16 03:32:37;;;;;;;0.32;0.20;;;27.00;87.40;;;;;;4984165;28;20038;-72
2022/05/16 03:35:06;;;;;;;0.60;0.28;;;26.60;90.00;;;;;;4989193;28;20116;-71
2022/05/16 03:37:33;;;;;;;1.65;0.10;;;26.20;90.40;;;;;;4980126;28;20054;-71
2022/05/16 03:42:46;;;;;;;0.30;0.20;;;25.80;91.10;;;;;;4980509;28;20080;-72
2022/05/16 03:45:14;;;;;;;0.32;0.22;;;25.40;90.60;;;;;;4981717;28;20121;-71
2022/05/16 03:47:41;;;;;;;0.20;0.20;;;25.20;91.90;;;;;;4978967;28;20472;-72
2022/05/16 03:50:09;;;;;;;0.10;0.10;;;25.00;90.90;;;;;;4989638;28;20022;-69
2022/05/16 03:52:38;;;;;;;0.73;0.30;;;24.80;91.90;;;;;;4986489;28;20142;-72
2022/05/16 03:55:07;;;;;;;1.00;0.30;;;24.70;91.90;;;;;;4984909;28;20042;-72
2022/05/16 03:57:35;;;;;;;1.25;0.20;;;24.50;91.60;;;;;;4981965;28;20038;-72
2022/05/16 04:00:04;;;;;;;0.70;0.20;;;24.50;92.10;;;;;;4982968;28;20038;-72
2022/05/16 04:02:31;;;;;;;0.40;0.20;;;24.40;92.00;;;;;;4988897;28;20054;-72
2022/05/16 04:04:58;;;;;;;0.30;0.20;;;24.30;92.40;;;;;;4984263;28;20053;-72
2022/05/16 04:07:25;;;;;;;0.40;0.20;;;24.20;92.00;;;;;;4979424;28;20034;-71
2022/05/16 04:09:53;;;;;;;1.05;0.20;;;24.10;92.60;;;;;;4983100;28;20378;-71
2022/05/16 04:12:20;;;;;;;0.30;0.15;;;24.10;92.30;;;;;;4980016;28;20097;-71
2022/05/16 04:14:49;;;;;;;0.30;0.20;;;23.90;92.80;;;;;;4980907;28;20222;-72
2022/05/16 04:17:16;;;;;;;0.20;0.20;;;23.90;92.60;;;;;;4977166;28;20030;-71
2022/05/16 04:19:43;;;;;;;0.20;0.10;;;23.70;92.60;;;;;;4982521;28;20081;-72
2022/05/16 04:22:11;;;;;;;3.65;0.30;;;23.60;92.70;;;;;;4981551;28;20037;-72
2022/05/16 04:24:38;;;;;;;1.52;0.25;;;23.50;93.00;;;;;;4982319;28;20034;-71
2022/05/16 04:27:06;;;;;;;0.60;0.40;;;23.50;93.60;;;;;;4980834;28;20037;-72
2022/05/16 04:29:33;;;;;;;0.20;0.13;;;23.50;93.60;;;;;;4981422;28;20413;-71
2022/05/16 04:32:01;;;;;;;1.48;0.20;;;23.50;93.30;;;;;;4979468;28;20034;-71
2022/05/16 04:34:28;;;;;;;0.45;0.20;;;23.50;93.40;;;;;;4980955;28;20184;-71
2022/05/16 04:36:55;;;;;;;0.80;0.30;;;23.50;93.90;;;;;;4979891;28;20058;-71
2022/05/16 04:39:23;;;;;;;0.77;0.20;;;23.40;94.30;;;;;;4984199;28;20113;-71
2022/05/16 04:44:39;;;;;;;0.10;0.10;;;23.30;93.40;;;;;;4981874;28;20126;-71
2022/05/16 04:47:07;;;;;;;0.25;0.20;;;23.20;93.70;;;;;;4978428;28;20038;-71
2022/05/16 04:49:36;;;;;;;0.30;0.20;;;23.20;94.10;;;;;;4981564;28;20055;-72
2022/05/16 04:52:03;;;;;;;0.93;0.20;;;23.20;94.60;;;;;;4982002;28;20081;-72
2022/05/16 04:54:31;;;;;;;0.70;0.20;;;23.10;94.30;;;;;;4980044;28;20069;-71
2022/05/16 04:56:58;;;;;;;0.73;0.40;;;23.10;94.20;;;;;;4982347;28;20046;-71
2022/05/16 04:59:26;;;;;;;0.77;0.20;;;23.10;94.00;;;;;;4990404;28;20452;-72
2022/05/16 05:01:53;;;;;;;4.40;0.32;;;23.10;94.50;;;;;;4989618;28;20417;-71
2022/05/16 05:04:21;;;;;;;0.20;0.20;;;23.10;95.30;;;;;;4987721;28;20253;-72
2022/05/16 05:06:48;;;;;;;0.40;0.20;;;23.10;94.80;;;;;;4984522;28;20424;-71
2022/05/16 05:09:16;;;;;;;0.20;0.20;;;23.10;94.90;;;;;;4982717;28;20039;-72
2022/05/16 05:14:48;;;;;;;0.40;0.20;;;23.10;94.00;;;;;;4926412;29;20063;-71
2022/05/16 05:17:16;;;;;;;0.75;0.30;;;23.00;94.70;;;;;;4968466;28;20046;-72
2022/05/16 05:19:44;;;;;;;1.00;0.38;;;23.00;94.80;;;;;;4987266;28;20039;-71
2022/05/16 05:22:12;;;;;;;1.05;0.43;;;23.00;95.20;;;;;;4982696;28;20381;-71
2022/05/16 05:24:40;;;;;;;0.35;0.30;;;23.00;94.70;;;;;;4982260;28;20500;-72
2022/05/16 05:27:07;;;;;;;0.85;0.20;;;22.90;94.80;;;;;;4982060;28;20149;-71
2022/05/16 05:29:34;;;;;;;0.45;0.20;;;22.90;94.70;;;;;;4991513;28;20507;-71
2022/05/16 05:32:03;;;;;;;1.92;0.20;;;22.90;94.60;;;;;;4982420;28;20038;-71
2022/05/16 05:34:30;;;;;;;0.17;0.17;;;23.00;94.40;;;;;;4985225;28;20042;-70
2022/05/16 05:36:58;;;;;;;0.70;0.20;;;23.00;94.60;;;;;;4980222;28;20045;-72
2022/05/16 05:39:26;;;;;;;1.27;0.30;;;23.00;95.30;;;;;;4983710;28;20077;-69
2022/05/16 05:41:53;;;;;;;0.50;0.40;;;23.00;95.70;;;;;;4981670;28;20377;-70
2022/05/16 05:44:20;;;;;;;0.60;0.30;;;22.90;95.50;;;;;;4984449;28;20026;-70
2022/05/16 05:46:48;;;;;;;0.20;0.20;;;23.00;95.60;;;;;;4981111;28;20030;-71
2022/05/16 05:49:16;;;;;;;1.02;0.20;;;23.10;95.00;;;;;;4985119;28;20121;-70
2022/05/16 05:51:43;;;;;;;1.85;0.60;;;23.20;94.70;;;;;;4981633;28;20034;-69
2022/05/16 05:54:11;;;;;;;0.20;0.20;;;23.20;95.30;;;;;;4983487;28;20034;-70
2022/05/16 05:56:39;;;;;;;0.30;0.20;;;23.30;95.10;;;;;;4989234;28;20030;-70
2022/05/16 05:59:06;;;;;;;2.92;0.20;;;23.30;94.70;;;;;;4989635;28;20408;-70
2022/05/16 06:01:34;;;;;;;0.10;0.10;;;23.30;94.80;;;;;;4986449;28;20056;-70
2022/05/16 06:04:01;;;;;;;0.60;0.20;;;23.40;95.00;;;;;;4984855;28;20125;-71
2022/05/16 06:06:28;;;;;;;2.05;0.30;;;23.40;95.10;;;;;;4987075;28;20019;-71
2022/05/16 06:08:55;;;;;;;0.65;0.30;;;23.50;94.70;;;;;;4992808;28;20085;-70
2022/05/16 06:11:28;;;;;;;1.95;0.30;;;23.50;95.40;;;;;;4982673;28;20936;-70
2022/05/16 06:13:58;;;;;;;0.30;0.20;;;23.60;95.60;;;;;;4993899;28;20042;-71
2022/05/16 06:16:25;;;;;;;0.57;0.30;;;23.70;95.00;;;;;;4988397;28;20065;-71
2022/05/16 06:18:52;;;;;;;0.60;0.20;;;23.70;94.60;;;;;;4994625;28;20062;-70
2022/05/16 06:21:20;;;;;;;0.60;0.30;;;23.60;95.10;;;;;;4985552;28;20034;-71
2022/05/16 06:23:47;;;;;;;1.63;0.40;;;23.60;95.70;;;;;;4988422;28;20473;-71
2022/05/16 06:26:15;;;;;;;0.38;0.32;;;23.50;95.70;;;;;;4982473;28;20410;-70
2022/05/16 06:28:42;;;;;;;0.28;0.20;;;23.40;95.70;;;;;;4988507;28;20029;-70
2022/05/16 06:31:10;;;;;;;0.32;0.20;;;23.20;96.50;;;;;;4985696;28;20077;-72
2022/05/16 06:33:37;;;;;;;0.22;0.20;;;23.00;96.60;;;;;;4993179;28;20034;-72
2022/05/16 06:36:05;;;;;;;0.30;0.30;;;22.80;96.50;;;;;;4992361;28;20064;-72
2022/05/16 06:38:35;;;;;;;0.30;0.15;;;22.60;96.60;;;;;;4992910;28;20022;-72
2022/05/16 06:41:02;;;;;;;0.60;0.20;;;22.40;96.80;;;;;;4991258;28;20144;-73
2022/05/16 06:43:31;;;;;;;2.03;0.70;;;22.20;96.80;;;;;;4994036;28;20374;-72
2022/05/16 06:45:59;;;;;;;0.52;0.30;;;22.00;97.30;;;;;;4991069;28;20030;-72
2022/05/16 06:48:27;;;;;;;1.95;0.57;;;21.80;97.50;;;;;;4994032;28;20358;-69
2022/05/16 06:50:54;;;;;;;2.17;0.30;;;21.70;98.10;;;;;;4990902;28;20386;-73
2022/05/16 06:53:26;;;;;;;2.50;0.40;;;21.50;98.70;;;;;;4992136;28;20076;-72
2022/05/16 06:55:54;;;;;;;1.33;0.75;;;21.40;99.20;;;;;;4988240;28;20477;-73
2022/05/16 06:58:22;;;;;;;1.00;0.63;;;21.30;99.90;;;;;;4988032;28;20056;-70
2022/05/16 07:00:50;;;;;;;2.25;1.30;;;21.10;99.90;;;;;;4990951;28;20535;-73
2022/05/16 07:03:17;;;;;;;2.90;1.60;;;21.00;99.90;;;;;;4984055;28;20381;-73
2022/05/16 07:05:46;;;;;;;2.30;1.10;;;20.90;99.90;;;;;;4981220;28;20061;-72
2022/05/16 07:08:14;;;;;;;2.45;1.20;;;20.80;99.90;;;;;;4982331;28;20117;-73
2022/05/16 07:10:41;;;;;;;1.75;0.90;;;20.70;99.90;;;;;;4983433;28;20469;-72
2022/05/16 07:13:08;;;;;;;2.08;0.68;;;20.60;99.90;;;;;;4979344;28;20022;-73
2022/05/16 07:15:35;;;;;;;1.17;0.88;;;20.50;99.90;;;;;;4980655;28;20038;-74
2022/05/16 07:18:03;;;;;;;1.70;0.90;;;20.50;99.90;;;;;;4980347;28;20022;-74
2022/05/16 07:20:30;;;;;;;3.15;0.65;;;20.40;99.90;;;;;;4981327;28;20134;-74
2022/05/16 07:23:01;;;;;;;1.45;0.52;;;20.30;99.90;;;;;;4988540;28;20020;-74
2022/05/16 07:25:29;;;;;;;1.00;0.40;;;20.20;99.90;;;;;;4985852;28;20492;-72
2022/05/16 07:28:02;;;;;;;1.42;0.75;;;20.20;99.90;;;;;;4982609;28;20445;-73
2022/05/16 07:30:35;;;;;;;2.50;1.10;;;20.10;99.90;;;;;;4985723;28;20018;-74
2022/05/16 07:33:03;;;;;;;0.90;0.70;;;20.10;99.90;;;;;;4980512;28;20030;-74
2022/05/16 07:35:33;;;;;;;2.38;0.75;;;20.00;99.90;;;;;;4987438;28;20034;-74
2022/05/16 07:38:01;;;;;;;2.42;1.13;;;20.00;99.90;;;;;;4979220;28;20053;-74
2022/05/16 07:40:31;;;;;;;1.77;0.88;;;20.00;99.90;;;;;;4988269;28;20077;-72
2022/05/16 07:42:58;;;;;;;2.53;0.77;;;20.00;99.90;;;;;;4989839;28;20030;-72
2022/05/16 07:45:27;;;;;;;1.10;0.70;;;19.90;99.90;;;;;;4984687;28;20101;-71
2022/05/16 07:47:54;;;;;;;4.38;0.93;;;19.90;99.90;;;;;;4981486;28;20054;-72
2022/05/16 07:50:23;;;;;;;3.03;0.40;;;19.80;99.90;;;;;;4982020;28;20108;-72
2022/05/16 07:52:51;;;;;;;2.20;0.60;;;19.80;99.90;;;;;;4982422;28;20025;-72
2022/05/16 07:55:23;;;;;;;1.75;0.85;;;19.80;99.90;;;;;;4987435;28;20038;-72
2022/05/16 07:57:51;;;;;;;2.13;1.08;;;19.70;99.90;;;;;;4981893;28;20485;-73
2022/05/16 08:00:23;;;;;;;3.08;1.05;;;19.60;99.90;;;;;;4981982;28;20117;-73
2022/05/16 08:02:53;;;;;;;0.77;0.47;;;19.60;99.90;;;;;;4978092;28;20038;-70
2022/05/16 08:05:21;;;;;;;2.17;0.63;;;19.50;99.90;;;;;;4982634;28;20029;-74
2022/05/16 08:10:37;;;;;;;1.08;0.70;;;19.40;99.90;;;;;;4990932;28;20036;-72
2022/05/16 08:13:10;;;;;;;1.23;0.60;;;19.30;99.90;;;;;;4981519;28;20026;-73
2022/05/16 08:15:40;;;;;;;1.23;0.60;;;19.20;99.90;;;;;;4980952;28;20051;-72
2022/05/16 08:18:10;;;;;;;2.15;0.40;;;19.10;99.90;;;;;;4982050;28;20018;-71
2022/05/16 08:20:39;;;;;;;0.77;0.40;;;19.10;99.90;;;;;;4990902;28;20038;-74
2022/05/16 08:23:06;;;;;;;1.27;0.55;;;19.00;99.90;;;;;;4989360;28;20158;-74
2022/05/16 08:25:34;;;;;;;1.95;1.08;;;18.90;99.90;;;;;;4990187;28;20034;-71
2022/05/16 08:28:01;;;;;;;0.60;0.40;;;18.80;99.90;;;;;;4987021;28;20031;-71
2022/05/16 08:30:28;;;;;;;2.80;0.75;;;18.70;99.90;;;;;;4991541;28;20022;-73
2022/05/16 08:33:01;;;;;;;1.17;0.47;;;18.60;99.90;;;;;;4988924;28;20392;-72
2022/05/16 08:35:29;;;;;;;2.33;0.90;;;18.50;99.90;;;;;;4991243;28;20046;-73
2022/05/16 08:40:54;;;;;;;1.60;0.65;;;18.30;99.90;;;;;;4992656;28;20393;-71
2022/05/16 08:43:44;;;;;;;2.58;0.60;;;18.20;99.90;;;;;;4993040;28;20399;-73
2022/05/16 08:46:32;;;;;;;1.42;0.60;;;18.20;99.90;;;;;;4990817;28;20113;-71
2022/05/16 08:49:36;;;;;;;1.30;0.50;;;18.20;99.90;;;;;;5067877;27;20449;-74
2022/05/16 08:52:28;;;;;;;2.65;0.77;;;18.10;99.90;;;;;;5046345;28;20036;-73
2022/05/16 08:55:07;;;;;;;1.88;0.60;;;18.00;99.90;;;;;;5066731;28;20103;-72
2022/05/16 08:57:45;;;;;;;1.08;0.50;;;17.90;99.90;;;;;;5066683;28;20036;-73
2022/05/16 09:00:25;;;;;;;1.67;0.50;;;17.80;99.90;;;;;;5063418;28;20475;-73
2022/05/16 09:02:55;;;;;;;2.65;1.15;;;17.80;99.90;;;;;;5052613;28;20115;-73
2022/05/16 09:05:44;;;;;;;2.63;0.70;;;17.70;99.90;;;;;;5060159;28;20510;-73
2022/05/16 09:08:26;;;;;;;1.10;0.40;;;17.60;99.90;;;;;;5067394;28;20041;-72
2022/05/16 09:11:14;;;;;;;4.18;0.60;;;17.60;99.90;;;;;;5048916;28;20109;-73
2022/05/16 09:13:51;;;;;;;0.70;0.20;;;17.60;99.90;;;;;;5048038;28;20025;-73
2022/05/16 09:16:30;;;;;;;4.32;0.28;;;17.50;99.90;;;;;;5051325;28;20107;-72
2022/05/16 09:19:15;;;;;;;1.92;0.30;;;17.60;99.50;;;;;;5066002;28;20203;-72
2022/05/16 09:21:55;;;;;;;5.63;0.30;;;17.60;99.20;;;;;;5053756;28;20482;-71
2022/05/16 09:24:35;;;;;;;0.77;0.20;;;17.70;99.10;;;;;;5068260;28;20111;-73
2022/05/16 09:30:23;;;;;;;2.83;0.20;;;17.60;99.10;;;;;;5048178;28;20087;-72
2022/05/16 09:33:00;;;;;;;0.22;0.10;;;17.60;99.00;;;;;;5049300;28;20107;-72
2022/05/16 09:35:59;;;;;;;1.38;0.20;;;17.60;99.10;;;;;;5047961;28;20117;-72
2022/05/16 09:38:26;;;;;;;2.60;0.40;;;17.50;99.20;;;;;;5047166;28;20044;-72
2022/05/16 09:41:00;;;;;;;1.45;0.43;;;17.50;98.90;;;;;;5060294;28;20047;-74
2022/05/16 09:43:34;;;;;;;0.60;0.30;;;17.40;99.20;;;;;;5048995;28;20087;-72
2022/05/16 09:46:23;;;;;;;1.02;0.40;;;17.30;99.60;;;;;;5064210;28;20028;-72
2022/05/16 09:49:18;;;;;;;0.40;0.15;;;17.30;99.60;;;;;;5062817;28;20051;-72
2022/05/16 09:51:50;;;;;;;1.33;0.28;;;17.30;99.40;;;;;;5050748;28;20026;-72
2022/05/16 09:54:35;;;;;;;2.05;0.30;;;17.20;99.10;;;;;;5048213;28;20119;-70
2022/05/16 09:57:12;;;;;;;2.13;0.20;;;17.20;99.10;;;;;;5055750;28;20116;-74
2022/05/16 10:00:00;;;;;;;1.65;0.20;;;17.20;99.10;;;;;;5056859;28;20083;-72
2022/05/16 10:02:34;;;;;;;2.17;0.30;;;17.20;98.70;;;;;;5052251;28;20033;-72
2022/05/16 10:05:21;;;;;;;0.77;0.68;;;17.20;98.60;;;;;;5053759;28;20029;-72
2022/05/16 10:08:14;;;;;;;0.88;0.20;;;17.20;98.20;;;;;;5051483;28;20374;-73
2022/05/16 10:10:43;;;;;;;2.25;0.25;;;17.20;98.10;;;;;;5043693;28;20034;-72
2022/05/16 10:13:12;;;;;;;0.73;0.10;;;17.20;98.10;;;;;;5042763;28;20109;-73
2022/05/16 10:15:39;;;;;;;0.32;0.20;;;17.20;98.20;;;;;;5033630;28;20022;-70
2022/05/16 10:18:13;;;;;;;0.60;0.35;;;17.10;98.50;;;;;;5051916;28;20083;-71
2022/05/16 10:20:46;;;;;;;3.03;0.55;;;17.00;99.00;;;;;;5051084;28;20025;-71
2022/05/16 10:23:22;;;;;;;0.77;0.28;;;16.90;99.90;;;;;;5043661;28;20025;-73
2022/05/16 10:25:53;;;;;;;0.60;0.20;;;16.80;99.90;;;;;;5052172;28;20071;-73
2022/05/16 10:28:33;;;;;;;2.10;0.30;;;16.70;99.90;;;;;;5036982;28;20048;-72
2022/05/16 10:33:50;;;;;;;1.88;0.63;;;16.40;99.90;;;;;;5053846;28;20044;-72
2022/05/16 10:36:33;;;;;;;0.40;0.30;;;16.20;99.90;;;;;;5051457;28;20025;-73
2022/05/16 10:39:16;;;;;;;1.13;0.50;;;16.10;99.90;;;;;;5033549;28;20135;-72
2022/05/16 10:41:58;;;;;;;3.47;0.40;;;16.00;99.90;;;;;;5041227;28;20021;-73
2022/05/16 10:44:38;;;;;;;1.90;0.38;;;15.80;99.90;;;;;;5052414;28;20549;-73
2022/05/16 10:47:22;;;;;;;0.50;0.40;;;15.80;99.90;;;;;;5051300;28;20049;-71
2022/05/16 10:49:59;;;;;;;1.35;0.40;;;15.70;99.90;;;;;;5052044;28;20388;-72
2022/05/16 10:52:56;;;;;;;2.33;0.85;;;15.60;99.90;;;;;;5045377;28;20049;-73
2022/05/16 10:55:24;;;;;;;2.03;0.47;;;15.60;99.90;;;;;;5052957;28;20041;-73
2022/05/16 10:58:10;;;;;;;1.90;0.25;;;15.60;99.90;;;;;;5050627;28;20104;-73
2022/05/16 11:00:52;;;;;;;0.90;0.35;;;15.60;99.90;;;;;;5051280;28;20043;-73
2022/05/16 11:03:35;;;;;;;1.77;0.40;;;15.60;99.90;;;;;;5033075;28;20022;-72
2022/05/16 11:06:32;;;;;;;0.57;0.28;;;15.50;99.90;;;;;;5048270;28;20037;-73
2022/05/16 11:09:06;;;;;;;0.20;0.20;;;15.60;99.90;;;;;;5052552;28;20102;-74
2022/05/16 11:11:58;;;;;;;1.38;0.50;;;15.60;99.90;;;;;;5048521;28;20376;-74
2022/05/16 11:14:56;;;;;;;2.78;0.32;;;15.60;99.90;;;;;;5048287;28;20048;-71
2022/05/16 11:17:48;;;;;;;1.95;0.45;;;15.50;99.90;;;;;;5044504;28;20033;-71
2022/05/16 11:20:38;;;;;;;1.42;0.57;;;15.50;99.90;;;;;;5052147;28;20048;-74
2022/05/16 11:23:20;;;;;;;1.55;0.40;;;15.50;99.90;;;;;;5048796;28;20103;-73
2022/05/16 11:25:58;;;;;;;3.53;0.70;;;15.40;99.90;;;;;;5050612;28;20446;-73
2022/05/16 11:28:37;;;;;;;3.63;0.68;;;15.40;99.90;;;;;;5045810;28;20526;-74
2022/05/16 11:31:12;;;;;;;1.70;0.50;;;15.40;99.90;;;;;;5047798;28;20117;-73
2022/05/16 11:33:52;;;;;;;1.85;0.50;;;15.30;99.90;;;;;;5032582;28;20109;-72
2022/05/16 11:36:45;;;;;;;0.85;0.45;;;15.30;99.90;;;;;;5036361;28;20025;-73
2022/05/16 11:39:37;;;;;;;1.55;0.47;;;15.20;99.90;;;;;;5037314;28;20037;-73
2022/05/16 11:42:48;;;;;;;1.45;0.40;;;15.20;99.90;;;;;;5041437;28;20482;-73
2022/05/16 11:45:37;;;;;;;1.05;0.52;;;15.10;99.90;;;;;;5029584;28;20106;-72
2022/05/16 11:48:17;;;;;;;2.55;1.25;;;15.00;99.90;;;;;;5028844;28;20062;-73
2022/05/16 11:51:21;;;;;;;0.55;0.40;;;15.00;99.90;;;;;;5030745;28;20067;-73
2022/05/16 11:53:57;;;;;;;1.55;0.45;;;14.90;99.90;;;;;;5039131;28;20036;-73
2022/05/16 12:02:48;;;;;;;0.57;0.30;;;14.90;99.90;;;;;;5028674;28;20557;-72
2022/05/16 12:05:43;;;;;;;2.28;0.30;;;14.90;99.90;;;;;;5048322;28;20518;-73
2022/05/16 12:08:18;;;;;;;1.90;0.43;;;14.90;99.90;;;;;;5026092;28;20045;-73
2022/05/16 12:11:03;;;;;;;1.00;0.30;;;14.90;99.90;;;;;;5031785;28;20030;-74
2022/05/16 12:13:33;;;;;;;2.00;0.55;;;14.90;99.90;;;;;;5031791;28;20047;-73
2022/05/16 12:16:28;;;;;;;1.63;0.93;;;14.90;99.90;;;;;;5032373;28;20022;-74
2022/05/16 12:19:32;;;;;;;2.92;0.40;;;14.90;99.90;;;;;;5051331;28;20033;-73
2022/05/16 12:22:04;;;;;;;1.17;0.40;;;14.90;99.90;;;;;;5037147;28;20037;-74
2022/05/16 12:24:41;;;;;;;3.80;0.30;;;14.90;99.90;;;;;;5043237;28;20346;-73
2022/05/16 12:27:44;;;;;;;3.45;0.30;;;14.90;99.90;;;;;;5042626;28;20037;-74
2022/05/16 12:30:15;;;;;;;3.30;0.43;;;14.90;99.90;;;;;;5046199;28;20033;-73
2022/05/16 12:32:53;;;;;;;1.42;0.30;;;14.90;99.90;;;;;;5049075;28;20021;-73
2022/05/16 12:35:39;;;;;;;1.67;0.30;;;14.80;99.90;;;;;;5051281;28;20099;-73
2022/05/16 12:38:09;;;;;;;1.73;0.30;;;14.80;99.90;;;;;;5049307;28;20112;-73
2022/05/16 12:40:53;;;;;;;2.05;0.50;;;14.80;99.90;;;;;;5038021;28;20042;-72
2022/05/16 12:43:57;;;;;;;2.38;0.75;;;14.80;99.90;;;;;;5037280;28;20113;-73
2022/05/16 12:46:47;;;;;;;2.17;0.35;;;14.70;99.90;;;;;;5045002;28;20056;-71
2022/05/16 12:49:43;;;;;;;1.40;0.30;;;14.60;99.90;;;;;;5040115;28;20182;-74
2022/05/16 12:52:28;;;;;;;;;;;14.50;99.90;;;;;;5048115;28;20025;-74
2022/05/16 12:55:02;;;;;;;2.42;0.55;;;14.40;99.90;;;;;;5041395;28;19908;-74
2022/05/16 12:57:50;;;;;;;1.73;0.60;;;14.30;99.90;;;;;;5037483;28;20025;-75
2022/05/16 13:00:32;;;;;;;1.10;0.98;;;14.20;99.90;;;;;;5035254;28;20036;-73
2022/05/16 13:03:38;;;;;;;6.35;1.00;;;14.10;99.90;;;;;;5037129;28;20431;-73
2022/05/16 13:06:25;;;;;;;2.65;0.60;;;14.10;99.90;;;;;;5046567;28;20460;-72
2022/05/16 13:09:02;;;;;;;2.38;1.50;;;14.00;99.90;;;;;;5050673;28;20041;-73
2022/05/16 13:11:56;;;;;;;1.83;0.40;;;13.90;99.90;;;;;;5044162;28;20067;-72
2022/05/16 13:14:29;;;;;;;1.60;0.70;;;13.90;99.90;;;;;;5030950;28;20029;-72
2022/05/16 13:17:27;;;;;;;3.85;0.60;;;13.70;99.90;;;;;;5037506;28;20613;-72
2022/05/16 13:19:55;;;;;;;1.90;0.70;;;13.70;99.90;;;;;;5026239;28;20072;-69
2022/05/16 13:22:24;;;;;;;3.47;0.50;;;13.60;99.90;;;;;;5042828;28;20036;-72
2022/05/16 13:24:56;;;;;;;3.20;1.00;;;13.60;99.90;;;;;;5031575;28;20459;-70
2022/05/16 13:30:16;;;;;;;2.80;0.32;;;13.50;99.90;;;;;;5030780;28;20032;-73
2022/05/16 13:32:44;;;;;;;2.38;0.50;;;13.60;99.90;;;;;;5043692;28;20368;-73
2022/05/16 13:35:15;;;;;;;1.20;0.50;;;13.50;99.90;;;;;;5041061;28;20025;-73
2022/05/16 13:37:49;;;;;;;2.88;0.47;;;13.50;99.90;;;;;;5038505;28;20036;-74
2022/05/16 13:40:38;;;;;;;1.58;0.90;;;13.50;99.90;;;;;;5048093;28;20098;-73
2022/05/16 13:43:27;;;;;;;3.95;0.52;;;13.50;99.90;;;;;;5051950;28;20032;-73
2022/05/16 13:46:21;;;;;;;3.50;0.40;;;13.40;99.90;;;;;;5053243;28;20025;-73
2022/05/16 13:49:07;;;;;;;0.82;0.52;;;13.50;99.90;;;;;;5032821;28;20056;-73
2022/05/16 13:51:41;;;;;;;3.05;0.50;;;13.50;99.90;;;;;;5041565;28;20115;-72
2022/05/16 13:54:19;;;;;;;2.70;0.73;;;13.50;99.90;;;;;;5051367;28;20036;-72
2022/05/16 13:56:58;;;;;;;5.47;0.85;;;13.40;99.90;;;;;;5042760;28;20017;-72